Time;durP1;ratioP1;P1;durP2;ratioP2;P2;SDS_P1;SDS_P2;PMS_P1;PMS_P2;Temp;Humidity;BMP_temperature;BMP_pressure;BME280_temperature;BME280_humidity;BME280_pressure;Samples;Min_cycle;Max_cycle;Signal;HPM_P1;HPM_P2
2023/07/18 00:01:20;;;;;;;14.70;4.20;;;;;;;;;;5033387;28;20114;-57
2023/07/18 00:03:45;;;;;;;18.02;8.55;;;;;;;;;;5016816;28;20286;-58
2023/07/18 00:06:11;;;;;;;22.48;5.72;;;;;;;;;;5032743;28;20048;-58
2023/07/18 00:08:36;;;;;;;19.13;6.68;;;;;;;;;;5035045;28;20139;-57
2023/07/18 00:11:01;;;;;;;19.52;5.38;;;;;;;;;;5033346;28;20056;-58
2023/07/18 00:13:27;;;;;;;15.23;6.72;;;;;;;;;;5035969;28;20491;-57
2023/07/18 00:15:52;;;;;;;15.55;4.32;;;;;;;;;;5034274;28;20029;-57
2023/07/18 00:18:21;;;;;;;13.95;4.10;;;;;;;;;;5034129;28;21292;-57
2023/07/18 00:20:46;;;;;;;14.40;4.35;;;;;;;;;;5033985;28;20033;-57
2023/07/18 00:23:11;;;;;;;19.93;5.43;;;;;;;;;;5032775;28;20143;-57
2023/07/18 00:25:37;;;;;;;15.85;4.50;;;;;;;;;;5034804;28;20264;-59
2023/07/18 00:28:03;;;;;;;18.08;4.97;;;;;;;;;;5031044;28;20035;-57
2023/07/18 00:30:29;;;;;;;14.80;4.78;;;;;;;;;;5034046;28;20117;-57
2023/07/18 00:32:55;;;;;;;13.65;4.38;;;;;;;;;;5034136;28;20021;-59
2023/07/18 00:35:20;;;;;;;14.23;4.47;;;;;;;;;;5032910;28;20120;-59
2023/07/18 00:37:45;;;;;;;22.98;13.25;;;;;;;;;;5034829;28;20022;-59
2023/07/18 00:40:11;;;;;;;23.85;5.90;;;;;;;;;;5031358;28;20116;-58
2023/07/18 00:42:37;;;;;;;15.02;4.28;;;;;;;;;;5034549;28;20486;-58
2023/07/18 00:45:04;;;;;;;14.80;4.57;;;;;;;;;;5034087;28;20036;-57
2023/07/18 00:47:29;;;;;;;14.30;4.38;;;;;;;;;;5033580;28;20037;-59
2023/07/18 00:49:54;;;;;;;14.37;4.33;;;;;;;;;;5034845;28;20056;-58
2023/07/18 00:52:21;;;;;;;15.80;4.38;;;;;;;;;;5014371;28;20774;-56
2023/07/18 00:54:46;;;;;;;15.35;4.43;;;;;;;;;;5034159;28;20017;-58
2023/07/18 00:57:11;;;;;;;21.83;5.28;;;;;;;;;;5032420;28;20750;-57
2023/07/18 00:59:39;;;;;;;14.07;4.20;;;;;;;;;;5034297;28;20028;-57
2023/07/18 01:02:05;;;;;;;12.45;3.92;;;;;;;;;;5037067;28;20032;-57
2023/07/18 01:04:31;;;;;;;11.48;3.85;;;;;;;;;;5040387;28;20028;-59
2023/07/18 01:06:56;;;;;;;10.88;3.50;;;;;;;;;;5022269;28;20440;-59
2023/07/18 01:09:22;;;;;;;14.00;4.43;;;;;;;;;;5039665;28;20017;-57
2023/07/18 01:12:12;;;;;;;12.80;4.07;;;;;;;;;;5040597;28;20029;-61
2023/07/18 01:15:02;;;;;;;12.38;4.25;;;;;;;;;;5040918;28;20616;-59
2023/07/18 01:17:52;;;;;;;15.73;6.35;;;;;;;;;;5040300;28;20606;-59
2023/07/18 01:20:46;;;;;;;13.05;3.83;;;;;;;;;;5040807;28;20051;-59
2023/07/18 01:23:37;;;;;;;12.45;4.30;;;;;;;;;;5041110;28;20029;-58
2023/07/18 01:26:27;;;;;;;16.85;4.50;;;;;;;;;;5040135;28;20091;-59
2023/07/18 01:29:19;;;;;;;14.30;4.38;;;;;;;;;;5040746;28;20089;-57
2023/07/18 01:32:09;;;;;;;12.93;3.83;;;;;;;;;;5039523;28;20555;-59
2023/07/18 01:34:59;;;;;;;13.32;4.03;;;;;;;;;;5038741;28;20112;-58
2023/07/18 01:37:49;;;;;;;15.02;4.47;;;;;;;;;;5038547;28;20517;-59
2023/07/18 01:40:39;;;;;;;12.68;4.22;;;;;;;;;;5037711;28;20085;-56
2023/07/18 01:43:30;;;;;;;11.77;3.38;;;;;;;;;;5040065;28;20020;-57
2023/07/18 01:46:20;;;;;;;16.00;3.97;;;;;;;;;;5038587;28;20514;-59
2023/07/18 01:49:11;;;;;;;15.68;4.72;;;;;;;;;;5038530;28;20032;-58
2023/07/18 01:52:03;;;;;;;14.77;4.53;;;;;;;;;;5038967;28;20025;-59
2023/07/18 01:54:54;;;;;;;14.97;4.20;;;;;;;;;;5038633;28;20048;-57
2023/07/18 01:57:45;;;;;;;12.50;3.75;;;;;;;;;;5037278;28;20557;-57
2023/07/18 02:00:35;;;;;;;21.70;4.60;;;;;;;;;;5037728;28;20029;-58
2023/07/18 02:03:25;;;;;;;15.20;4.57;;;;;;;;;;5037476;28;20211;-59
2023/07/18 02:06:16;;;;;;;13.07;4.03;;;;;;;;;;5039395;28;20269;-57
2023/07/18 02:09:07;;;;;;;14.88;4.07;;;;;;;;;;5040794;28;20025;-58
2023/07/18 02:11:57;;;;;;;15.38;4.03;;;;;;;;;;5037634;28;20730;-59
2023/07/18 02:14:48;;;;;;;16.70;4.63;;;;;;;;;;5038657;28;20023;-59
2023/07/18 02:17:38;;;;;;;15.13;3.97;;;;;;;;;;5038529;28;20063;-58
2023/07/18 02:20:28;;;;;;;11.43;4.38;;;;;;;;;;5038929;28;20052;-59
2023/07/18 02:23:19;;;;;;;13.15;4.50;;;;;;;;;;5038670;28;20047;-60
2023/07/18 02:26:09;;;;;;;16.63;4.68;;;;;;;;;;5038076;28;20037;-57
2023/07/18 02:29:00;;;;;;;11.85;4.03;;;;;;;;;;5040226;28;20478;-57
2023/07/18 02:31:50;;;;;;;18.85;4.20;;;;;;;;;;5039232;28;20217;-59
2023/07/18 02:34:41;;;;;;;17.25;4.47;;;;;;;;;;5039575;28;20360;-58
2023/07/18 02:37:32;;;;;;;16.52;4.82;;;;;;;;;;5036456;28;20202;-59
2023/07/18 02:40:22;;;;;;;16.15;4.82;;;;;;;;;;5038006;28;20020;-57
2023/07/18 02:43:12;;;;;;;13.60;4.18;;;;;;;;;;5039709;28;20036;-58
2023/07/18 02:46:02;;;;;;;18.88;5.00;;;;;;;;;;5037770;28;20547;-59
2023/07/18 02:48:52;;;;;;;16.13;4.53;;;;;;;;;;5042398;28;20024;-59
2023/07/18 02:51:43;;;;;;;13.30;4.40;;;;;;;;;;5041767;28;20076;-59
2023/07/18 02:54:33;;;;;;;13.55;3.92;;;;;;;;;;5042911;28;20108;-57
2023/07/18 02:57:24;;;;;;;12.98;4.07;;;;;;;;;;5043273;28;20033;-58
2023/07/18 03:00:20;;;;;;;23.25;5.07;;;;;;;;;;5042838;28;20104;-60
2023/07/18 03:03:11;;;;;;;18.45;4.55;;;;;;;;;;5041148;28;20060;-57
2023/07/18 03:06:03;;;;;;;11.77;4.00;;;;;;;;;;5042142;28;20093;-60
2023/07/18 03:08:53;;;;;;;14.75;4.40;;;;;;;;;;5042155;28;20769;-58
2023/07/18 03:11:44;;;;;;;16.67;4.97;;;;;;;;;;5041918;28;20337;-56
2023/07/18 03:14:34;;;;;;;13.85;4.18;;;;;;;;;;5042507;28;20025;-58
2023/07/18 03:17:25;;;;;;;13.50;4.32;;;;;;;;;;5042022;28;20029;-60
2023/07/18 03:20:19;;;;;;;11.93;4.00;;;;;;;;;;5043001;28;20021;-58
2023/07/18 03:23:10;;;;;;;15.98;4.45;;;;;;;;;;5042739;28;20032;-59
2023/07/18 03:26:01;;;;;;;14.85;4.60;;;;;;;;;;5041358;28;20904;-58
2023/07/18 03:28:52;;;;;;;12.90;4.13;;;;;;;;;;5042277;28;20354;-59
2023/07/18 03:31:42;;;;;;;13.68;4.35;;;;;;;;;;5040726;28;20026;-58
2023/07/18 03:34:33;;;;;;;20.98;5.07;;;;;;;;;;5040731;28;20021;-59
2023/07/18 03:37:24;;;;;;;20.05;5.45;;;;;;;;;;5040492;28;20581;-58
2023/07/18 03:40:18;;;;;;;14.35;4.65;;;;;;;;;;5040276;28;20341;-57
2023/07/18 03:43:07;;;;;;;16.80;4.53;;;;;;;;;;5042560;28;20120;-57
2023/07/18 03:45:58;;;;;;;13.48;4.60;;;;;;;;;;5041854;28;20040;-58
2023/07/18 03:48:47;;;;;;;18.25;5.20;;;;;;;;;;5040381;28;20156;-58
2023/07/18 03:51:39;;;;;;;14.73;4.30;;;;;;;;;;5041319;28;20036;-58
2023/07/18 03:54:29;;;;;;;15.48;4.90;;;;;;;;;;5041562;28;20363;-58
2023/07/18 03:57:20;;;;;;;15.65;4.68;;;;;;;;;;5040519;28;20582;-58
2023/07/18 04:00:14;;;;;;;18.95;4.78;;;;;;;;;;5040132;28;20489;-56
2023/07/18 04:03:03;;;;;;;17.80;4.53;;;;;;;;;;5040699;28;20029;-57
2023/07/18 04:05:54;;;;;;;15.13;4.60;;;;;;;;;;5041044;28;20036;-58
2023/07/18 04:08:44;;;;;;;11.65;4.00;;;;;;;;;;5040914;28;20029;-56
2023/07/18 04:11:34;;;;;;;17.38;4.97;;;;;;;;;;5039331;28;20057;-59
2023/07/18 04:17:34;;;;;;;15.13;4.80;;;;;;;;;;5038469;28;20212;-58
2023/07/18 04:20:24;;;;;;;11.98;4.10;;;;;;;;;;5039846;28;20025;-58
2023/07/18 04:23:15;;;;;;;16.63;4.60;;;;;;;;;;5039385;28;20073;-57
2023/07/18 04:26:09;;;;;;;16.90;4.57;;;;;;;;;;5039739;28;20040;-58
2023/07/18 04:28:59;;;;;;;21.23;5.40;;;;;;;;;;5038989;28;20020;-58
2023/07/18 04:31:50;;;;;;;13.93;4.63;;;;;;;;;;5037994;28;20819;-58
2023/07/18 04:34:41;;;;;;;12.27;4.40;;;;;;;;;;5039325;28;20033;-59
2023/07/18 04:37:31;;;;;;;12.68;4.07;;;;;;;;;;5037544;28;20049;-58
2023/07/18 04:40:22;;;;;;;19.30;5.20;;;;;;;;;;5039200;28;20017;-60
2023/07/18 04:43:12;;;;;;;11.13;4.03;;;;;;;;;;5038605;28;20182;-59
2023/07/18 04:46:03;;;;;;;14.98;4.38;;;;;;;;;;5010869;28;20025;-58
2023/07/18 04:48:54;;;;;;;13.88;4.63;;;;;;;;;;5039371;28;20025;-58
2023/07/18 04:51:44;;;;;;;17.85;4.47;;;;;;;;;;5038817;28;20040;-59
2023/07/18 04:54:35;;;;;;;13.63;4.40;;;;;;;;;;5040721;28;20060;-58
2023/07/18 04:57:26;;;;;;;12.27;3.90;;;;;;;;;;5039441;28;20040;-59
2023/07/18 05:00:17;;;;;;;15.25;5.07;;;;;;;;;;5039507;28;20025;-59
2023/07/18 05:03:08;;;;;;;19.95;5.45;;;;;;;;;;5036533;28;20209;-60
2023/07/18 05:05:59;;;;;;;16.15;5.22;;;;;;;;;;5038298;28;20091;-59
2023/07/18 05:08:50;;;;;;;12.88;4.47;;;;;;;;;;5038918;28;20021;-60
2023/07/18 05:11:40;;;;;;;11.07;4.22;;;;;;;;;;5037111;28;20051;-57
2023/07/18 05:14:31;;;;;;;14.88;4.70;;;;;;;;;;5038794;28;20060;-59
2023/07/18 05:17:21;;;;;;;196.95;181.10;;;;;;;;;;5037345;28;20056;-57
2023/07/18 05:20:12;;;;;;;42.45;37.72;;;;;;;;;;5037580;28;20040;-57
2023/07/18 05:23:02;;;;;;;208.55;189.55;;;;;;;;;;5038057;28;20829;-57
2023/07/18 05:25:53;;;;;;;109.88;99.82;;;;;;;;;;5036911;28;20064;-57
2023/07/18 05:28:44;;;;;;;229.07;210.30;;;;;;;;;;5009416;28;20026;-58
2023/07/18 05:31:35;;;;;;;179.25;164.13;;;;;;;;;;5037771;28;20152;-58
2023/07/18 05:34:26;;;;;;;199.68;182.70;;;;;;;;;;5038742;28;20031;-58
2023/07/18 05:37:16;;;;;;;304.17;279.75;;;;;;;;;;5038317;28;20658;-58
2023/07/18 05:40:10;;;;;;;195.43;179.18;;;;;;;;;;5036425;28;20333;-57
2023/07/18 05:43:01;;;;;;;157.95;144.25;;;;;;;;;;5038082;28;20083;-57
2023/07/18 05:45:52;;;;;;;274.20;250.55;;;;;;;;;;5036715;28;20035;-57
2023/07/18 05:48:42;;;;;;;203.43;183.13;;;;;;;;;;5037532;28;20035;-58
2023/07/18 05:51:32;;;;;;;271.33;249.70;;;;;;;;;;5036994;28;20110;-58
2023/07/18 05:54:23;;;;;;;296.13;272.33;;;;;;;;;;5037058;28;20301;-58
2023/07/18 05:57:13;;;;;;;137.82;127.03;;;;;;;;;;5036950;28;20192;-57
2023/07/18 06:00:05;;;;;;;211.05;195.10;;;;;;;;;;5037988;28;20031;-58
2023/07/18 06:02:56;;;;;;;278.83;255.90;;;;;;;;;;5037037;28;20059;-56
2023/07/18 06:05:46;;;;;;;375.20;341.10;;;;;;;;;;5036732;28;20028;-57
2023/07/18 06:08:37;;;;;;;426.40;393.67;;;;;;;;;;5037103;28;20123;-59
2023/07/18 06:11:27;;;;;;;403.80;373.83;;;;;;;;;;5037084;28;20033;-58
2023/07/18 06:14:17;;;;;;;444.75;411.95;;;;;;;;;;5037981;28;20557;-58
2023/07/18 06:17:07;;;;;;;487.83;452.83;;;;;;;;;;5011034;28;20103;-59
2023/07/18 06:19:58;;;;;;;480.05;445.15;;;;;;;;;;5037564;28;20434;-58
2023/07/18 06:22:48;;;;;;;503.33;466.27;;;;;;;;;;5036150;28;20044;-59
2023/07/18 06:25:52;;;;;;;480.55;440.73;;;;;;;;;;5036863;28;20577;-58
2023/07/18 06:28:42;;;;;;;483.45;447.65;;;;;;;;;;5036222;28;20036;-59
2023/07/18 06:31:34;;;;;;;463.23;429.10;;;;;;;;;;5035839;28;20037;-58
2023/07/18 06:34:25;;;;;;;468.25;433.88;;;;;;;;;;5037136;28;20059;-58
2023/07/18 06:37:15;;;;;;;462.63;425.70;;;;;;;;;;5036396;28;20490;-58
2023/07/18 06:40:05;;;;;;;497.85;451.90;;;;;;;;;;5036115;28;20172;-58
2023/07/18 06:42:57;;;;;;;395.98;366.08;;;;;;;;;;5035916;28;20044;-58
2023/07/18 06:45:47;;;;;;;539.72;490.27;;;;;;;;;;5037128;28;20017;-58
2023/07/18 06:48:38;;;;;;;369.08;336.05;;;;;;;;;;5036665;28;20450;-59
2023/07/18 06:51:28;;;;;;;498.77;447.65;;;;;;;;;;5036280;28;20835;-59
2023/07/18 06:54:19;;;;;;;429.27;393.60;;;;;;;;;;5037351;28;20032;-59
2023/07/18 06:57:10;;;;;;;433.42;396.02;;;;;;;;;;5036997;28;20276;-58
2023/07/18 07:00:00;;;;;;;428.05;389.25;;;;;;;;;;5037538;28;20025;-58
2023/07/18 07:02:50;;;;;;;320.17;291.65;;;;;;;;;;5037264;28;20048;-58
2023/07/18 07:05:42;;;;;;;360.05;327.42;;;;;;;;;;5036957;28;20131;-57
2023/07/18 07:08:32;;;;;;;387.08;352.38;;;;;;;;;;5037227;28;20033;-58
2023/07/18 07:11:24;;;;;;;420.15;380.63;;;;;;;;;;5036890;28;20491;-59
2023/07/18 07:14:15;;;;;;;484.85;387.35;;;;;;;;;;5036582;28;20025;-59
2023/07/18 07:16:40;;;;;;;;;;;;;;;;;;5037063;28;20033;-59
2023/07/18 07:19:30;;;;;;;361.25;328.75;;;;;;;;;;5037148;28;19909;-57
2023/07/18 07:22:20;;;;;;;465.95;424.00;;;;;;;;;;5036307;28;20082;-58
2023/07/18 14:15:26;;;;;;;235.60;214.70;;;;;;;;;;5036417;28;20035;-59
2023/07/18 14:17:51;;;;;;;337.95;306.75;;;;;;;;;;5028840;28;20025;-58
2023/07/18 14:20:17;;;;;;;216.57;198.57;;;;;;;;;;5018928;28;20035;-59
2023/07/18 14:22:43;;;;;;;319.17;290.20;;;;;;;;;;5037178;28;20271;-59
2023/07/18 14:25:08;;;;;;;316.23;286.05;;;;;;;;;;5018074;28;20192;-58
2023/07/18 14:27:33;;;;;;;278.20;252.95;;;;;;;;;;5037596;28;20052;-59
2023/07/18 14:29:59;;;;;;;257.20;236.23;;;;;;;;;;5035041;28;20490;-58
2023/07/18 14:32:24;;;;;;;317.10;291.07;;;;;;;;;;5035627;28;20033;-59
2023/07/18 14:34:49;;;;;;;553.80;495.93;;;;;;;;;;5035522;28;20407;-59
2023/07/18 14:37:14;;;;;;;273.20;248.37;;;;;;;;;;5036249;28;20272;-58
2023/07/18 14:39:40;;;;;;;314.05;285.20;;;;;;;;;;5034049;28;20613;-58
2023/07/18 14:42:06;;;;;;;268.30;247.38;;;;;;;;;;5035742;28;20068;-58
2023/07/18 14:44:32;;;;;;;459.48;414.75;;;;;;;;;;5040550;28;20025;-58
2023/07/18 14:46:57;;;;;;;415.33;376.67;;;;;;;;;;5037774;28;20037;-59
2023/07/18 14:49:22;;;;;;;257.65;234.90;;;;;;;;;;5040348;28;20460;-59
2023/07/18 14:51:48;;;;;;;286.87;262.13;;;;;;;;;;5038221;28;20033;-59
2023/07/18 14:54:13;;;;;;;1259.17;328.73;;;;;;;;;;5040818;28;20297;-59
2023/07/18 14:56:38;;;;;;;232.57;211.65;;;;;;;;;;5040512;28;21021;-58
2023/07/18 14:59:04;;;;;;;293.37;267.27;;;;;;;;;;5042348;28;21433;-61
2023/07/18 15:01:29;;;;;;;319.85;289.30;;;;;;;;;;5040325;28;20505;-58
2023/07/18 15:03:54;;;;;;;303.17;275.17;;;;;;;;;;5039525;28;20553;-58
2023/07/18 15:06:19;;;;;;;277.13;241.63;;;;;;;;;;5039985;28;20350;-60
2023/07/18 15:08:45;;;;;;;312.43;278.60;;;;;;;;;;5020638;28;20641;-59
2023/07/18 15:11:10;;;;;;;303.70;278.40;;;;;;;;;;5039807;28;20613;-58
2023/07/18 15:13:35;;;;;;;280.50;255.33;;;;;;;;;;5040914;28;20247;-60
2023/07/18 15:16:01;;;;;;;304.35;276.42;;;;;;;;;;5037757;28;20029;-59
2023/07/18 15:18:26;;;;;;;232.57;213.45;;;;;;;;;;5040851;28;20021;-59
2023/07/18 15:20:51;;;;;;;472.17;424.57;;;;;;;;;;5038509;28;20705;-59
2023/07/18 15:23:16;;;;;;;248.83;226.70;;;;;;;;;;5040111;28;20299;-59
2023/07/18 15:25:42;;;;;;;229.43;211.40;;;;;;;;;;5039780;28;20036;-59
2023/07/18 15:28:08;;;;;;;409.25;374.08;;;;;;;;;;5039258;28;20078;-59
2023/07/18 15:30:34;;;;;;;282.73;259.77;;;;;;;;;;5039171;28;20331;-59
2023/07/18 15:32:59;;;;;;;256.07;233.30;;;;;;;;;;5038424;28;20055;-59
2023/07/18 15:35:24;;;;;;;282.83;261.60;;;;;;;;;;5037988;28;20028;-59
2023/07/18 15:37:49;;;;;;;300.47;273.83;;;;;;;;;;5037570;28;20017;-59
2023/07/18 15:40:15;;;;;;;233.57;214.10;;;;;;;;;;5038884;28;20831;-60
2023/07/18 15:42:40;;;;;;;255.73;233.57;;;;;;;;;;5018388;28;20267;-59
2023/07/18 15:45:05;;;;;;;252.00;230.60;;;;;;;;;;5037675;28;20020;-59
2023/07/18 15:47:31;;;;;;;253.90;233.32;;;;;;;;;;5039306;28;20104;-57
2023/07/18 15:49:56;;;;;;;263.20;238.87;;;;;;;;;;5038154;28;20028;-58
2023/07/18 15:52:23;;;;;;;248.60;227.30;;;;;;;;;;5038478;28;20086;-58
2023/07/18 15:54:48;;;;;;;246.18;224.40;;;;;;;;;;5037603;28;20267;-58
2023/07/18 15:57:13;;;;;;;236.90;216.93;;;;;;;;;;5038561;28;20094;-59
2023/07/18 15:59:39;;;;;;;266.57;243.33;;;;;;;;;;5039614;28;20025;-57
2023/07/18 16:02:04;;;;;;;369.93;333.63;;;;;;;;;;5037615;28;20099;-58
2023/07/18 16:04:29;;;;;;;303.08;278.13;;;;;;;;;;5038845;28;20047;-58
2023/07/18 16:06:54;;;;;;;278.77;258.13;;;;;;;;;;5037079;28;20499;-58
2023/07/18 16:09:27;;;;;;;279.27;254.93;;;;;;;;;;5038915;28;20438;-59
2023/07/18 16:11:53;;;;;;;256.02;233.43;;;;;;;;;;5037068;28;20029;-57
2023/07/18 16:14:18;;;;;;;238.20;216.77;;;;;;;;;;5038707;28;20078;-59
2023/07/18 16:16:44;;;;;;;269.70;245.27;;;;;;;;;;5035998;28;20417;-58
2023/07/18 16:19:09;;;;;;;308.20;281.80;;;;;;;;;;5038420;28;20029;-59
2023/07/18 16:21:34;;;;;;;236.27;215.07;;;;;;;;;;5038368;28;20017;-59
2023/07/18 16:24:00;;;;;;;409.77;375.48;;;;;;;;;;5036165;28;20047;-57
2023/07/18 16:26:25;;;;;;;222.73;204.93;;;;;;;;;;5038093;28;20048;-59
2023/07/18 16:28:51;;;;;;;230.37;210.97;;;;;;;;;;5036667;28;20021;-57
2023/07/18 16:31:18;;;;;;;223.67;204.80;;;;;;;;;;5038662;28;20276;-59
2023/07/18 16:33:43;;;;;;;248.02;225.65;;;;;;;;;;5039420;28;20251;-59
2023/07/18 16:36:08;;;;;;;224.02;206.05;;;;;;;;;;5035520;28;20488;-59
2023/07/18 16:38:34;;;;;;;220.15;202.27;;;;;;;;;;5039349;28;20493;-59
2023/07/18 16:41:00;;;;;;;283.48;258.55;;;;;;;;;;5036969;28;20421;-58
2023/07/18 16:43:25;;;;;;;229.02;210.18;;;;;;;;;;5038894;28;20021;-59
2023/07/18 16:45:51;;;;;;;210.43;193.18;;;;;;;;;;5038103;28;20552;-60
2023/07/18 16:48:16;;;;;;;213.63;195.55;;;;;;;;;;5039025;28;20056;-58
2023/07/18 16:50:43;;;;;;;351.50;324.15;;;;;;;;;;5038383;28;20076;-58
2023/07/18 16:53:08;;;;;;;223.80;205.35;;;;;;;;;;5039778;28;20017;-58
2023/07/18 16:55:33;;;;;;;276.90;255.27;;;;;;;;;;5037952;28;20029;-58
2023/07/18 16:57:58;;;;;;;245.97;224.40;;;;;;;;;;5036646;28;20021;-58
2023/07/18 17:00:24;;;;;;;472.93;430.60;;;;;;;;;;5038066;28;20558;-59
2023/07/18 17:02:49;;;;;;;233.90;214.90;;;;;;;;;;5036866;28;20775;-59
2023/07/18 17:05:15;;;;;;;215.37;197.17;;;;;;;;;;5036423;28;20195;-59
2023/07/18 17:07:40;;;;;;;276.87;253.20;;;;;;;;;;5038317;28;20270;-59
2023/07/18 17:10:05;;;;;;;225.18;206.60;;;;;;;;;;5036049;28;20286;-58
2023/07/18 17:12:32;;;;;;;238.75;218.98;;;;;;;;;;5009944;28;20068;-57
2023/07/18 17:14:57;;;;;;;213.48;195.73;;;;;;;;;;5036745;28;20087;-58
2023/07/18 17:17:22;;;;;;;220.27;201.90;;;;;;;;;;5037876;28;20037;-59
2023/07/18 17:19:48;;;;;;;196.73;179.83;;;;;;;;;;5018811;28;20106;-59
2023/07/18 17:22:13;;;;;;;409.17;375.70;;;;;;;;;;5037029;28;20106;-59
2023/07/18 17:24:38;;;;;;;216.20;198.13;;;;;;;;;;5038184;28;20124;-57
2023/07/18 17:27:07;;;;;;;200.30;183.88;;;;;;;;;;5035341;28;20086;-58
2023/07/18 17:29:32;;;;;;;234.10;215.77;;;;;;;;;;5037970;28;20025;-59
2023/07/18 17:31:58;;;;;;;318.08;292.42;;;;;;;;;;5034705;28;20041;-58
2023/07/18 17:34:24;;;;;;;218.20;200.73;;;;;;;;;;5036307;28;20024;-58
2023/07/18 17:36:51;;;;;;;211.20;193.43;;;;;;;;;;5034691;28;20086;-58
2023/07/18 17:39:17;;;;;;;219.18;201.55;;;;;;;;;;5036411;28;20267;-58
2023/07/18 17:41:42;;;;;;;237.00;217.35;;;;;;;;;;5036601;28;20051;-58
2023/07/18 17:44:07;;;;;;;219.37;200.87;;;;;;;;;;5035798;28;20028;-59
2023/07/18 17:46:32;;;;;;;218.83;201.40;;;;;;;;;;5036250;28;20047;-57
2023/07/18 17:48:58;;;;;;;213.90;195.30;;;;;;;;;;5036850;28;20631;-59
2023/07/18 17:51:23;;;;;;;233.30;213.90;;;;;;;;;;5036722;28;20268;-59
2023/07/18 17:53:48;;;;;;;223.57;205.32;;;;;;;;;;5037556;28;20034;-58
2023/07/18 17:56:20;;;;;;;229.70;210.97;;;;;;;;;;5035358;28;20056;-59
2023/07/18 17:58:45;;;;;;;229.95;211.35;;;;;;;;;;5037612;28;20021;-58
2023/07/18 18:01:10;;;;;;;285.37;263.23;;;;;;;;;;5035701;28;20641;-58
2023/07/18 18:03:38;;;;;;;233.07;213.70;;;;;;;;;;5037832;28;20024;-59
2023/07/18 18:06:03;;;;;;;229.52;210.80;;;;;;;;;;5035978;28;20083;-58
2023/07/18 18:08:29;;;;;;;206.52;189.55;;;;;;;;;;5037053;28;20557;-58
2023/07/18 18:10:54;;;;;;;226.18;207.32;;;;;;;;;;5034983;28;20032;-58
2023/07/18 18:13:20;;;;;;;192.95;177.18;;;;;;;;;;5037006;28;20055;-59
2023/07/18 18:15:45;;;;;;;216.15;198.68;;;;;;;;;;5038267;28;20052;-60
2023/07/18 18:18:10;;;;;;;194.73;178.95;;;;;;;;;;5035129;28;20111;-58
2023/07/18 18:20:38;;;;;;;211.30;194.40;;;;;;;;;;5036778;28;20115;-58
2023/07/18 18:23:04;;;;;;;253.93;233.20;;;;;;;;;;5036307;28;20266;-56
2023/07/18 18:25:29;;;;;;;182.93;167.73;;;;;;;;;;5036594;28;20042;-57
2023/07/18 18:27:55;;;;;;;208.52;191.85;;;;;;;;;;5036273;28;20032;-58
2023/07/18 18:30:20;;;;;;;216.50;198.70;;;;;;;;;;5036425;28;20082;-59
2023/07/18 18:32:45;;;;;;;213.23;196.27;;;;;;;;;;5036816;28;20044;-58
2023/07/18 18:35:11;;;;;;;226.73;207.97;;;;;;;;;;5035223;28;20304;-58
2023/07/18 18:37:37;;;;;;;210.37;193.47;;;;;;;;;;5036691;28;20266;-59
2023/07/18 18:40:02;;;;;;;273.80;251.93;;;;;;;;;;5035303;28;20259;-57
2023/07/18 18:42:27;;;;;;;244.10;223.73;;;;;;;;;;5002118;28;20044;-58
2023/07/18 18:44:52;;;;;;;211.37;194.37;;;;;;;;;;5035417;28;20389;-56
2023/07/18 18:50:21;;;;;;;226.82;209.20;;;;;;;;;;5035991;28;21151;-58
2023/07/18 18:52:46;;;;;;;237.60;219.13;;;;;;;;;;5036680;28;20499;-59
2023/07/18 18:55:12;;;;;;;224.73;206.85;;;;;;;;;;5034145;28;20260;-58
2023/07/18 18:57:37;;;;;;;251.20;231.50;;;;;;;;;;5035592;28;20016;-59
2023/07/18 19:00:03;;;;;;;284.75;262.75;;;;;;;;;;5035692;28;20031;-59
2023/07/18 19:02:28;;;;;;;246.90;228.20;;;;;;;;;;5035406;28;20056;-58
2023/07/18 19:04:54;;;;;;;293.17;270.60;;;;;;;;;;5035563;28;20435;-56
2023/07/18 19:07:21;;;;;;;262.50;242.67;;;;;;;;;;5035594;28;20037;-56
2023/07/18 19:09:46;;;;;;;277.83;257.23;;;;;;;;;;5036544;28;20283;-58
2023/07/18 19:12:12;;;;;;;323.98;298.63;;;;;;;;;;4998615;28;20565;-58
2023/07/18 19:14:40;;;;;;;287.00;265.30;;;;;;;;;;5035898;28;20017;-59
2023/07/18 19:17:06;;;;;;;297.02;274.50;;;;;;;;;;5033783;28;20033;-58
2023/07/18 19:19:41;;;;;;;456.05;422.35;;;;;;;;;;5036406;28;20040;-58
2023/07/18 19:22:07;;;;;;;546.90;506.52;;;;;;;;;;5034555;28;20064;-57
2023/07/18 19:24:33;;;;;;;508.17;470.10;;;;;;;;;;5034539;28;20447;-58
2023/07/18 19:26:58;;;;;;;556.58;513.95;;;;;;;;;;5033080;28;20555;-59
2023/07/18 19:29:23;;;;;;;538.55;498.63;;;;;;;;;;5038159;28;20029;-57
2023/07/18 19:31:49;;;;;;;492.15;455.40;;;;;;;;;;5039022;28;20021;-58
2023/07/18 19:34:14;;;;;;;530.63;490.57;;;;;;;;;;5038785;28;21516;-58
2023/07/18 19:36:39;;;;;;;475.57;439.13;;;;;;;;;;5040131;28;20135;-58
2023/07/18 19:39:04;;;;;;;568.70;526.35;;;;;;;;;;5038852;28;20428;-58
2023/07/18 19:41:30;;;;;;;539.27;499.80;;;;;;;;;;5038596;28;20354;-59
2023/07/18 19:43:55;;;;;;;568.37;526.00;;;;;;;;;;5039514;28;20013;-58
2023/07/18 19:46:21;;;;;;;563.53;521.90;;;;;;;;;;5038491;28;20120;-58
2023/07/18 19:48:47;;;;;;;485.50;446.27;;;;;;;;;;5040147;28;20075;-58
2023/07/18 19:51:12;;;;;;;589.80;546.67;;;;;;;;;;5038513;28;20435;-57
2023/07/18 19:53:37;;;;;;;600.17;556.53;;;;;;;;;;5040053;28;20291;-59
2023/07/18 19:56:03;;;;;;;565.37;524.33;;;;;;;;;;5037686;28;20098;-59
2023/07/18 19:58:28;;;;;;;507.42;470.17;;;;;;;;;;5038697;28;20275;-58
2023/07/18 20:00:54;;;;;;;397.70;363.27;;;;;;;;;;5038817;28;20032;-58
2023/07/18 20:03:19;;;;;;;572.15;530.78;;;;;;;;;;5038409;28;20102;-59
2023/07/18 20:05:45;;;;;;;586.60;544.70;;;;;;;;;;5039270;28;20060;-57
2023/07/18 20:08:10;;;;;;;520.80;481.30;;;;;;;;;;5038103;28;20260;-58
2023/07/18 20:10:35;;;;;;;560.97;519.83;;;;;;;;;;5030963;28;20509;-58
2023/07/18 20:13:00;;;;;;;555.20;514.40;;;;;;;;;;5035711;28;20295;-58
2023/07/18 20:15:27;;;;;;;392.67;360.42;;;;;;;;;;5036769;28;20056;-59
2023/07/18 20:17:52;;;;;;;547.42;507.73;;;;;;;;;;5037437;28;20061;-58
2023/07/18 20:20:18;;;;;;;461.90;424.50;;;;;;;;;;5034093;28;20107;-58
2023/07/18 20:22:43;;;;;;;463.00;423.27;;;;;;;;;;5035727;28;20104;-56
2023/07/18 20:25:09;;;;;;;401.45;363.45;;;;;;;;;;5032798;28;20021;-58
2023/07/18 20:27:37;;;;;;;474.15;437.85;;;;;;;;;;5034756;28;20024;-56
2023/07/18 20:30:04;;;;;;;354.92;325.88;;;;;;;;;;5033749;28;20037;-57
2023/07/18 20:32:29;;;;;;;412.10;380.92;;;;;;;;;;5035246;28;20032;-59
2023/07/18 20:34:54;;;;;;;414.52;382.70;;;;;;;;;;5036663;28;20555;-60
2023/07/18 20:37:19;;;;;;;384.50;354.83;;;;;;;;;;5033669;28;20029;-60
2023/07/18 20:39:45;;;;;;;393.75;360.75;;;;;;;;;;5034389;28;20033;-61
2023/07/18 20:42:10;;;;;;;405.00;372.80;;;;;;;;;;5032696;28;20040;-59
2023/07/18 20:44:35;;;;;;;361.80;332.40;;;;;;;;;;5034304;28;20025;-59
2023/07/18 20:47:01;;;;;;;415.63;375.77;;;;;;;;;;5032846;28;20039;-58
2023/07/18 20:49:26;;;;;;;339.58;312.85;;;;;;;;;;5016734;28;20406;-56
2023/07/18 20:51:52;;;;;;;395.42;361.20;;;;;;;;;;5034405;28;20037;-58
2023/07/18 20:54:17;;;;;;;326.37;298.77;;;;;;;;;;5033258;28;20024;-58
2023/07/18 20:56:42;;;;;;;229.63;211.13;;;;;;;;;;5034961;28;20274;-58
2023/07/18 20:59:07;;;;;;;225.27;203.87;;;;;;;;;;5034880;28;20024;-58
2023/07/18 21:01:33;;;;;;;239.52;219.82;;;;;;;;;;5035677;28;20378;-56
2023/07/18 21:03:59;;;;;;;232.80;211.27;;;;;;;;;;5035671;28;20017;-58
2023/07/18 21:06:24;;;;;;;319.75;293.13;;;;;;;;;;5033791;28;20037;-58
2023/07/18 21:08:49;;;;;;;239.87;218.13;;;;;;;;;;5035060;28;20436;-58
2023/07/18 21:11:15;;;;;;;326.23;298.45;;;;;;;;;;5032720;28;20272;-58
2023/07/18 21:13:40;;;;;;;371.30;341.83;;;;;;;;;;5034860;28;20029;-60
2023/07/18 21:16:07;;;;;;;184.13;167.80;;;;;;;;;;5031807;28;20029;-59
2023/07/18 21:18:32;;;;;;;232.88;213.27;;;;;;;;;;5034386;28;20017;-60
2023/07/18 21:20:57;;;;;;;258.97;237.00;;;;;;;;;;5033691;28;20039;-59
2023/07/18 21:23:22;;;;;;;226.87;208.30;;;;;;;;;;5033742;28;20797;-60
2023/07/18 21:25:48;;;;;;;206.60;189.15;;;;;;;;;;5035158;28;20518;-60
2023/07/18 21:28:13;;;;;;;217.02;197.07;;;;;;;;;;5032207;28;20025;-61
2023/07/18 21:30:38;;;;;;;248.17;226.93;;;;;;;;;;5034937;28;20410;-60
2023/07/18 21:33:03;;;;;;;155.80;141.87;;;;;;;;;;5034364;28;20355;-60
2023/07/18 21:35:29;;;;;;;176.50;161.57;;;;;;;;;;5034671;28;20037;-60
2023/07/18 21:37:54;;;;;;;188.13;171.75;;;;;;;;;;5034112;28;20350;-59
2023/07/18 21:40:19;;;;;;;170.50;154.83;;;;;;;;;;5032057;28;20434;-60
2023/07/18 21:42:45;;;;;;;172.32;157.85;;;;;;;;;;5035426;28;20255;-59
2023/07/18 21:45:11;;;;;;;226.32;205.88;;;;;;;;;;5031472;28;20037;-59